Portada
METAR-TAF:

METAR-TAF

Aeropuertos :

Barcelona, Venezuela

Aeropuerto Internacional General José Antonio Anzoátegui

latitud: 10-07N, longitud: 064-41W, altitud: 7 m

METAR: falta

Hora: 04:19 (08:19 UTC)

Pronóstico

El informe se hizo hace 4 horas y 19 minutos, a las 04:00 UTC
Pronóstico válido del 24 a las 06 UTC al 25 a las 06 UTC
Viento 10 kt del noreste
Visibilidad 10 km o más
Escasas nubes a una altura de 1600 ft
Evolucionando progresivamente
del 24 a las 06 UTC al 24 a las 10 UTC
Viento 5 kt del noreste

TAF: SVBC 240400Z 2406/2506 05010KT 9999 FEW016 TX33/19Z TN24/09Z BECMG 2406/2410 04005KT

Observaciones y pronósticos meteorológicos de más de 4000 aeropuertos (mensajes METAR y TAF).

Los puntos amarillos y rojos representan las estaciones disponibles.

Ponga el ratón en el punto deseado para ver el nombre de la estación.

Haga clic para ver las observaciones y los pronósticos meteorológicos.

Para cambiar el mapa : haga clic en los botones verdes con una cruz de color negro para hacer un zoom, en el botón verde con un guión para alejar o en las flechas verdes para mapas adyacentes.


METAR-TAF: